Time;durP1;ratioP1;P1;durP2;ratioP2;P2;SDS_P1;SDS_P2;PMS_P1;PMS_P2;Temp;Humidity;BMP_temperature;BMP_pressure;BME280_temperature;BME280_humidity;BME280_pressure;Samples;Min_cycle;Max_cycle;Signal;HPM_P1;HPM_P2
2022/08/07 00:01:48;;;;;;;10.48;8.45;;;25.80;99.90;;;;;;4902028;29;20036;-91
2022/08/07 00:04:14;;;;;;;11.77;8.20;;;25.80;99.90;;;;;;4901881;29;20063;-93
2022/08/07 00:06:41;;;;;;;14.98;8.30;;;25.70;99.90;;;;;;4901551;29;20075;-91
2022/08/07 00:09:08;;;;;;;9.30;7.80;;;25.70;99.90;;;;;;4901790;29;20035;-91
2022/08/07 00:11:35;;;;;;;10.18;7.88;;;25.60;99.90;;;;;;4901825;29;20024;-92
2022/08/07 00:14:01;;;;;;;9.98;7.90;;;25.60;99.90;;;;;;4901783;29;20028;-91
2022/08/07 00:16:28;;;;;;;10.30;7.82;;;25.60;99.90;;;;;;4901640;29;20036;-91
2022/08/07 00:18:54;;;;;;;13.07;7.95;;;25.60;99.90;;;;;;4901668;29;20032;-92
2022/08/07 00:21:21;;;;;;;12.38;7.68;;;25.50;99.90;;;;;;4901588;29;20036;-92
2022/08/07 00:23:47;;;;;;;9.55;7.75;;;25.50;99.90;;;;;;4901214;29;20405;-94
2022/08/07 00:26:14;;;;;;;12.27;7.95;;;25.50;99.90;;;;;;4901760;29;20032;-92
2022/08/07 00:28:40;;;;;;;10.93;7.72;;;25.50;99.90;;;;;;4901560;29;20063;-91
2022/08/07 00:31:09;;;;;;;10.15;8.00;;;25.50;99.90;;;;;;4901388;29;20508;-93
2022/08/07 00:33:38;;;;;;;11.18;8.07;;;25.50;99.90;;;;;;4901346;29;20032;-92
2022/08/07 00:36:06;;;;;;;10.55;7.95;;;25.50;99.90;;;;;;4909388;29;20083;-91
2022/08/07 00:38:35;;;;;;;15.00;8.07;;;25.40;99.90;;;;;;4907923;29;20075;-93
2022/08/07 00:41:04;;;;;;;12.35;8.48;;;25.40;99.90;;;;;;4901225;29;20032;-91
2022/08/07 00:43:31;;;;;;;13.73;8.70;;;25.40;99.90;;;;;;4901388;29;20052;-92
2022/08/07 00:45:59;;;;;;;10.80;7.95;;;25.40;99.90;;;;;;4903073;29;20077;-91
2022/08/07 00:48:26;;;;;;;9.48;8.45;;;25.40;99.90;;;;;;4902190;29;20032;-92
2022/08/07 00:50:54;;;;;;;9.82;8.45;;;25.30;99.90;;;;;;4902063;29;20028;-93
2022/08/07 00:53:22;;;;;;;16.75;8.38;;;25.30;99.90;;;;;;4903197;29;20036;-94
2022/08/07 00:55:49;;;;;;;14.02;8.50;;;25.30;99.90;;;;;;4901444;29;20501;-94
2022/08/07 00:58:19;;;;;;;13.75;8.90;;;25.20;99.90;;;;;;4901240;29;20036;-93
2022/08/07 01:00:47;;;;;;;12.75;8.32;;;25.20;99.90;;;;;;4900775;29;20028;-93
2022/08/07 01:03:14;;;;;;;9.98;8.23;;;25.10;99.90;;;;;;4901477;29;20068;-93
2022/08/07 01:05:43;;;;;;;12.00;8.57;;;25.20;99.90;;;;;;4901266;29;20044;-92
2022/08/07 01:08:10;;;;;;;9.23;8.25;;;25.20;99.90;;;;;;4901412;29;20036;-93
2022/08/07 01:10:38;;;;;;;11.60;8.30;;;25.20;99.90;;;;;;4901554;29;20035;-94
2022/08/07 01:13:05;;;;;;;13.00;8.65;;;25.20;99.90;;;;;;4901574;29;20052;-93
2022/08/07 01:15:34;;;;;;;11.13;7.72;;;25.20;99.90;;;;;;4901628;29;20055;-91
2022/08/07 01:18:02;;;;;;;13.65;8.02;;;25.20;99.90;;;;;;4901701;29;20047;-92
2022/08/07 01:20:36;;;;;;;11.02;7.72;;;25.20;99.90;;;;;;4910984;29;20036;-92
2022/08/07 01:23:03;;;;;;;9.93;7.82;;;25.30;99.90;;;;;;4910012;29;20064;-93
2022/08/07 01:25:33;;;;;;;13.02;7.60;;;25.30;99.90;;;;;;4901852;29;20025;-93
2022/08/07 01:28:04;;;;;;;9.68;7.53;;;25.30;99.90;;;;;;5015332;23;20478;-93
2022/08/07 01:30:39;;;;;;;9.35;7.53;;;25.40;99.90;;;;;;4886660;29;20107;-94
2022/08/07 01:33:35;;;;;;;;;;;;;;;;;;;;;
2022/08/07 01:36:48;;;;;;;11.30;7.10;;;25.40;99.90;;;;;;4918576;29;20028;-92
2022/08/07 01:39:31;;;;;;;9.40;7.90;;;25.40;99.90;;;;;;4871648;29;20513;-94
2022/08/07 01:42:16;;;;;;;10.07;7.90;;;25.40;99.90;;;;;;4898000;29;20041;-93
2022/08/07 01:44:47;;;;;;;11.52;7.80;;;25.50;99.90;;;;;;4897695;29;20032;-93
2022/08/07 01:47:34;;;;;;;10.27;7.25;;;25.50;99.90;;;;;;4867400;29;20051;-93
2022/08/07 01:50:46;;;;;;;8.60;7.35;;;25.60;99.90;;;;;;4898341;29;20033;-93
2022/08/07 01:54:09;;;;;;;10.43;7.45;;;25.60;99.90;;;;;;4874153;29;20073;-93
2022/08/07 01:56:50;;;;;;;11.90;6.50;;;25.70;99.90;;;;;;4860525;29;20049;-93
2022/08/07 01:59:28;;;;;;;10.52;6.80;;;25.70;99.90;;;;;;4845772;29;20048;-93
2022/08/07 02:02:43;;;;;;;10.48;6.07;;;25.70;99.90;;;;;;4845008;29;20049;-94
2022/08/07 02:05:30;;;;;;;9.45;6.18;;;25.70;99.90;;;;;;4827150;29;20053;-93
2022/08/07 02:08:05;;;;;;;8.60;6.68;;;25.70;99.90;;;;;;4811865;29;20053;-94
2022/08/07 02:10:40;;;;;;;13.00;6.75;;;25.70;99.90;;;;;;4812778;29;20148;-94
2022/08/07 02:13:13;;;;;;;10.85;6.20;;;25.70;99.90;;;;;;4829649;29;20519;-94
2022/08/07 02:15:56;;;;;;;9.38;6.57;;;25.70;99.90;;;;;;4816113;29;20148;-93
2022/08/07 02:18:33;;;;;;;14.07;6.45;;;25.70;99.90;;;;;;4816783;29;20045;-93
2022/08/07 02:21:07;;;;;;;10.25;5.85;;;25.70;99.90;;;;;;4832573;29;20061;-93
2022/08/07 02:23:43;;;;;;;9.93;6.45;;;25.70;99.90;;;;;;4823884;29;20102;-93
2022/08/07 02:26:12;;;;;;;10.68;6.40;;;25.70;99.90;;;;;;4814456;29;20034;-95
2022/08/07 02:28:44;;;;;;;11.00;6.32;;;25.70;99.90;;;;;;4814590;29;20439;-93
2022/08/07 02:31:13;;;;;;;11.05;6.40;;;25.60;99.90;;;;;;4829276;29;20058;-93
2022/08/07 02:33:40;;;;;;;6.65;6.00;;;25.60;99.90;;;;;;4814450;29;20107;-94
2022/08/07 02:36:11;;;;;;;9.23;6.38;;;25.60;99.90;;;;;;4816724;29;20074;-91
2022/08/07 02:38:43;;;;;;;9.77;6.50;;;25.60;99.90;;;;;;4838210;29;20026;-93
2022/08/07 02:41:35;;;;;;;11.25;6.40;;;25.60;99.90;;;;;;4869824;29;20068;-93
2022/08/07 02:44:06;;;;;;;8.82;6.70;;;25.50;99.90;;;;;;4912469;29;20054;-94
2022/08/07 02:46:38;;;;;;;11.30;6.53;;;25.50;99.90;;;;;;4900555;29;20024;-94
2022/08/07 02:49:05;;;;;;;10.32;6.32;;;25.50;99.90;;;;;;4870216;29;20028;-93
2022/08/07 02:51:37;;;;;;;6.93;6.07;;;25.50;99.90;;;;;;4897727;29;20037;-93
2022/08/07 02:54:08;;;;;;;9.57;6.53;;;25.50;99.90;;;;;;4893287;29;20032;-94
2022/08/07 02:56:55;;;;;;;7.57;6.25;;;25.50;99.90;;;;;;4919784;29;20044;-93
2022/08/07 02:59:26;;;;;;;9.98;6.30;;;25.50;99.90;;;;;;4905054;29;20085;-93
2022/08/07 03:01:56;;;;;;;8.88;6.15;;;25.50;99.90;;;;;;4912499;29;20106;-93
2022/08/07 03:04:27;;;;;;;9.93;6.55;;;25.50;99.90;;;;;;4915863;29;20064;-94
2022/08/07 03:06:55;;;;;;;9.73;5.93;;;25.50;99.90;;;;;;4900103;29;20059;-93
2022/08/07 03:09:26;;;;;;;11.07;6.63;;;25.50;99.90;;;;;;4900549;29;20542;-93
2022/08/07 03:12:15;;;;;;;10.15;6.75;;;25.50;99.90;;;;;;4901022;29;20040;-93
2022/08/07 03:14:43;;;;;;;7.20;6.50;;;25.40;99.90;;;;;;4885760;29;20031;-93
2022/08/07 03:17:15;;;;;;;10.90;6.75;;;25.50;99.90;;;;;;4900154;29;20544;-93
2022/08/07 03:19:42;;;;;;;11.50;6.90;;;25.50;99.90;;;;;;4900174;29;20033;-93
2022/08/07 03:22:13;;;;;;;9.32;6.97;;;25.40;99.90;;;;;;4883585;29;20037;-94
2022/08/07 03:24:40;;;;;;;9.98;6.57;;;25.40;99.90;;;;;;4899841;29;20096;-93
2022/08/07 03:27:09;;;;;;;8.70;6.65;;;25.40;99.90;;;;;;4900076;29;20024;-95
2022/08/07 03:29:50;;;;;;;11.77;6.68;;;25.40;99.90;;;;;;4898985;29;20044;-93
2022/08/07 03:32:28;;;;;;;8.90;6.50;;;25.40;99.90;;;;;;4884396;29;20040;-94
2022/08/07 03:35:01;;;;;;;11.90;6.47;;;25.30;99.90;;;;;;4902284;29;20024;-93
2022/08/07 03:37:33;;;;;;;9.60;6.40;;;25.30;99.90;;;;;;4900578;29;20040;-92
2022/08/07 03:40:05;;;;;;;11.55;6.68;;;25.30;99.90;;;;;;4899875;29;20028;-93
2022/08/07 03:42:40;;;;;;;9.90;6.50;;;25.30;99.90;;;;;;4900246;29;20040;-93
2022/08/07 03:45:10;;;;;;;6.80;6.10;;;25.20;99.90;;;;;;4884262;29;20032;-92
2022/08/07 03:47:38;;;;;;;14.00;6.55;;;25.20;99.90;;;;;;4903755;29;20013;-94
2022/08/07 03:50:06;;;;;;;10.68;6.65;;;25.20;99.90;;;;;;4918294;29;20040;-94
2022/08/07 03:52:42;;;;;;;12.63;7.10;;;25.20;99.90;;;;;;4890150;29;20028;-94
2022/08/07 03:55:10;;;;;;;9.93;6.40;;;25.20;99.90;;;;;;4883794;29;20033;-94
2022/08/07 03:57:42;;;;;;;11.77;6.82;;;25.20;99.90;;;;;;4899677;29;20486;-93
2022/08/07 04:00:13;;;;;;;10.77;6.50;;;25.20;99.90;;;;;;4899806;29;20036;-93
2022/08/07 04:02:50;;;;;;;12.52;7.20;;;25.20;99.90;;;;;;4899515;29;20051;-91
2022/08/07 04:05:29;;;;;;;12.70;7.25;;;25.20;99.90;;;;;;4885628;29;20104;-92
2022/08/07 04:07:58;;;;;;;11.13;7.00;;;25.30;99.90;;;;;;4888911;29;20032;-93
2022/08/07 04:10:27;;;;;;;13.55;7.57;;;25.30;99.90;;;;;;4899250;29;20056;-93
2022/08/07 04:13:02;;;;;;;10.52;6.88;;;25.30;99.90;;;;;;4884147;29;20029;-92
2022/08/07 04:15:34;;;;;;;9.40;7.20;;;25.30;99.90;;;;;;4899197;29;20040;-93
2022/08/07 04:18:02;;;;;;;8.40;6.88;;;25.40;99.90;;;;;;4887745;29;20032;-92
2022/08/07 04:20:46;;;;;;;;;;;;;;;;;;;;;
2022/08/07 04:23:18;;;;;;;9.52;7.20;;;25.50;99.90;;;;;;4884740;29;20162;-93
2022/08/07 04:25:50;;;;;;;11.15;7.30;;;25.60;99.90;;;;;;4897707;29;20040;-93
2022/08/07 04:28:20;;;;;;;13.20;7.22;;;25.70;99.90;;;;;;4884050;29;20060;-90
2022/08/07 04:30:51;;;;;;;13.20;7.45;;;25.80;99.90;;;;;;4888103;29;20032;-92
2022/08/07 04:33:30;;;;;;;10.35;7.88;;;25.80;99.90;;;;;;4907114;29;20037;-93
2022/08/07 04:36:14;;;;;;;9.43;7.03;;;25.90;99.90;;;;;;4898986;29;20049;-94
2022/08/07 04:38:51;;;;;;;13.55;7.38;;;26.00;99.90;;;;;;4869199;29;20033;-93
2022/08/07 04:41:24;;;;;;;12.75;7.60;;;26.10;99.90;;;;;;4867945;29;20043;-93
2022/08/07 04:44:00;;;;;;;10.10;7.45;;;26.20;99.90;;;;;;4898534;29;20088;-92
2022/08/07 04:47:10;;;;;;;9.95;7.53;;;26.20;99.90;;;;;;4898345;29;20033;-93
2022/08/07 04:49:59;;;;;;;10.50;7.50;;;26.40;99.90;;;;;;4883021;29;20039;-92
2022/08/07 04:52:52;;;;;;;14.98;7.55;;;26.60;99.90;;;;;;4898497;29;20043;-93
2022/08/07 04:55:51;;;;;;;13.60;7.15;;;26.80;99.90;;;;;;4898904;29;20040;-93
2022/08/07 04:58:47;;;;;;;15.00;7.55;;;27.30;99.90;;;;;;4898550;29;20024;-93
2022/08/07 05:01:32;;;;;;;11.38;7.60;;;27.80;99.90;;;;;;4901134;29;20112;-94
2022/08/07 05:31:37;;;;;;;10.57;7.22;;;33.30;99.90;;;;;;3540976;23;20330;-90
2022/08/07 05:34:14;;;;;;;9.68;7.57;;;32.80;99.90;;;;;;4882800;29;20124;-94
2022/08/07 05:36:47;;;;;;;11.70;7.88;;;32.60;99.90;;;;;;4884185;29;20108;-93
2022/08/07 05:39:37;;;;;;;12.30;7.53;;;32.00;99.90;;;;;;4884163;29;20134;-94
2022/08/07 05:42:12;;;;;;;12.25;7.95;;;31.30;99.90;;;;;;4883440;29;20068;-94
2022/08/07 05:44:44;;;;;;;9.43;7.70;;;31.70;99.90;;;;;;4880339;29;20029;-94
2022/08/07 05:47:13;;;;;;;11.45;6.88;;;31.70;99.90;;;;;;5046136;23;20043;-88
2022/08/07 05:49:40;;;;;;;12.48;7.28;;;31.80;99.90;;;;;;4870472;29;20127;-88
2022/08/07 05:52:08;;;;;;;11.32;6.97;;;32.00;99.90;;;;;;4885647;29;20036;-87
2022/08/07 05:54:35;;;;;;;11.43;7.50;;;32.10;99.90;;;;;;4885561;29;20029;-89
2022/08/07 05:57:03;;;;;;;9.80;7.45;;;32.50;99.90;;;;;;4889130;29;20043;-88
2022/08/07 05:59:36;;;;;;;10.27;7.13;;;32.20;99.90;;;;;;4885341;29;20126;-87
2022/08/07 06:02:38;;;;;;;9.30;7.20;;;32.30;99.90;;;;;;4885749;29;20037;-89
2022/08/07 06:05:11;;;;;;;11.45;7.35;;;32.40;99.90;;;;;;4885360;29;20040;-89
2022/08/07 06:07:41;;;;;;;9.15;6.60;;;32.80;99.90;;;;;;4885821;29;20036;-91
2022/08/07 06:10:10;;;;;;;10.35;7.72;;;33.30;99.90;;;;;;4887533;29;20119;-89
2022/08/07 06:12:37;;;;;;;10.40;7.43;;;33.50;99.90;;;;;;4885528;29;20032;-89
2022/08/07 06:15:06;;;;;;;11.57;7.38;;;33.40;99.90;;;;;;4888297;29;20043;-91
2022/08/07 06:17:34;;;;;;;11.60;7.65;;;33.60;99.90;;;;;;4885399;29;20025;-90
2022/08/07 06:20:06;;;;;;;9.45;7.40;;;33.80;99.90;;;;;;4885990;29;20032;-92
2022/08/07 06:22:36;;;;;;;12.10;7.70;;;34.20;99.90;;;;;;4871042;29;20474;-93
2022/08/07 06:25:18;;;;;;;13.10;7.15;;;34.50;99.90;;;;;;4885600;29;20482;-91
2022/08/07 06:27:46;;;;;;;12.60;7.10;;;34.20;99.90;;;;;;4870089;29;20067;-93
2022/08/07 06:30:43;;;;;;;12.65;8.05;;;34.20;99.90;;;;;;4886488;29;20060;-93
2022/08/07 06:33:33;;;;;;;;;;;;;;;;;;;;;
2022/08/07 06:36:32;;;;;;;11.45;7.63;;;34.70;99.90;;;;;;4887235;29;20040;-93
2022/08/07 06:39:04;;;;;;;9.80;7.72;;;34.60;99.90;;;;;;4886105;29;20029;-93
2022/08/07 06:41:51;;;;;;;11.98;8.07;;;34.50;99.90;;;;;;4885751;29;20036;-93
2022/08/07 06:44:20;;;;;;;8.73;7.07;;;34.00;99.90;;;;;;4867165;29;20033;-93
2022/08/07 06:46:47;;;;;;;10.32;7.45;;;33.90;99.90;;;;;;4885083;29;20124;-93
2022/08/07 06:49:14;;;;;;;10.43;7.13;;;34.30;99.90;;;;;;4889915;29;20072;-93
2022/08/07 06:51:45;;;;;;;18.73;7.95;;;34.80;99.90;;;;;;4874979;29;20087;-94
2022/08/07 06:54:16;;;;;;;10.90;7.95;;;35.00;99.90;;;;;;4872151;29;20040;-93
2022/08/07 07:00:19;;;;;;;11.60;7.53;;;35.30;99.90;;;;;;5469848;23;20056;-91
2022/08/07 07:02:49;;;;;;;9.00;7.00;;;35.20;99.90;;;;;;4891707;29;20040;-94
2022/08/07 07:05:22;;;;;;;9.45;7.18;;;35.30;99.90;;;;;;4870313;29;20104;-93
2022/08/07 07:07:49;;;;;;;10.20;7.53;;;35.10;99.90;;;;;;4884769;29;20028;-93
2022/08/07 07:10:38;;;;;;;11.30;7.47;;;34.90;99.90;;;;;;4869471;29;20049;-93
2022/08/07 07:13:43;;;;;;;11.90;7.65;;;34.60;99.90;;;;;;4869001;29;20033;-92
2022/08/07 07:16:38;;;;;;;9.82;7.20;;;34.80;99.90;;;;;;4885249;29;20036;-94
2022/08/07 07:19:18;;;;;;;12.80;8.13;;;34.90;99.90;;;;;;4870382;29;20080;-95
2022/08/07 07:21:55;;;;;;;14.20;8.23;;;35.60;99.90;;;;;;4899262;23;20087;-93
2022/08/07 07:24:22;;;;;;;13.38;7.85;;;36.30;99.90;;;;;;4892269;29;20036;-94
2022/08/07 07:26:52;;;;;;;14.23;7.80;;;36.60;99.90;;;;;;4884392;29;20032;-91
2022/08/07 07:29:24;;;;;;;11.55;8.68;;;35.60;99.90;;;;;;4884352;29;20028;-92
2022/08/07 07:31:55;;;;;;;8.57;7.68;;;35.40;99.90;;;;;;4884227;29;20025;-91
2022/08/07 07:34:27;;;;;;;8.07;7.13;;;35.40;99.90;;;;;;4884318;29;20036;-92
2022/08/07 07:36:55;;;;;;;10.70;7.32;;;35.00;99.90;;;;;;4884096;29;20028;-93
2022/08/07 07:39:24;;;;;;;11.13;7.70;;;35.10;99.90;;;;;;4884023;29;20028;-90
2022/08/07 07:41:51;;;;;;;11.30;7.82;;;35.30;99.90;;;;;;4883761;29;20137;-92
2022/08/07 07:44:20;;;;;;;14.77;8.07;;;35.20;99.90;;;;;;4884024;29;20071;-92
2022/08/07 07:47:14;;;;;;;10.57;6.88;;;35.20;99.90;;;;;;4886891;29;20052;-92
2022/08/07 07:49:55;;;;;;;8.75;7.15;;;35.00;99.90;;;;;;4886283;29;20088;-94
2022/08/07 07:52:24;;;;;;;13.88;7.47;;;35.40;99.90;;;;;;4884764;29;20033;-92
2022/08/07 07:54:53;;;;;;;9.20;8.15;;;35.10;99.90;;;;;;4883901;29;20483;-91
2022/08/07 07:57:23;;;;;;;9.75;7.25;;;35.30;99.90;;;;;;4883686;29;20032;-93
2022/08/07 10:21:41;;;;;;;19.75;18.13;;;35.40;99.90;;;;;;4883585;29;20056;-91
2022/08/07 10:24:23;;;;;;;14.50;13.35;;;35.30;99.90;;;;;;4866455;29;20037;-94
2022/08/07 10:27:14;;;;;;;14.32;13.02;;;35.10;99.90;;;;;;4882571;29;20033;-93
2022/08/07 10:30:06;;;;;;;14.20;12.77;;;35.40;99.90;;;;;;4882302;29;20120;-94
2022/08/07 10:33:08;;;;;;;14.43;12.95;;;35.30;99.90;;;;;;4881793;29;20033;-92
2022/08/07 10:35:52;;;;;;;14.05;13.05;;;35.30;99.90;;;;;;4804104;29;20051;-92
2022/08/07 11:18:11;;;;;;;;;;;;;;;;;;;;;
2022/08/07 11:21:42;;;;;;;15.82;14.68;;;35.40;99.90;;;;;;4838347;29;20072;-93
2022/08/07 12:31:56;;;;;;;26.77;24.30;;;35.70;99.90;;;;;;4891272;29;20117;-94
2022/08/07 12:34:28;;;;;;;19.65;17.98;;;35.80;99.90;;;;;;4888793;29;20044;-94
2022/08/07 12:46:37;;;;;;;17.38;16.15;;;35.80;99.90;;;;;;4995978;23;20146;-95
2022/08/07 12:59:51;;;;;;;17.45;16.23;;;35.60;99.90;;;;;;5086850;23;20059;-93
2022/08/07 13:02:55;;;;;;;17.17;15.90;;;35.40;99.90;;;;;;4905774;29;20075;-94
2022/08/07 13:05:34;;;;;;;18.60;17.20;;;35.60;99.90;;;;;;4916905;29;20032;-94
2022/08/07 13:08:42;;;;;;;17.98;16.58;;;35.60;99.90;;;;;;4918642;29;20028;-92
2022/08/07 13:11:18;;;;;;;17.30;16.13;;;35.60;99.90;;;;;;4902732;29;20043;-92
2022/08/07 13:14:26;;;;;;;17.52;16.33;;;35.50;99.50;;;;;;4902899;29;20024;-93
2022/08/07 13:17:21;;;;;;;18.40;17.10;;;35.30;99.90;;;;;;4903582;29;20064;-94
2022/08/07 13:20:42;;;;;;;17.58;16.27;;;35.30;99.90;;;;;;4903880;29;20087;-94
2022/08/07 13:23:39;;;;;;;17.95;16.38;;;35.40;99.90;;;;;;4903558;29;20047;-93
2022/08/07 13:26:34;;;;;;;17.50;16.20;;;35.50;99.90;;;;;;4814481;29;20042;-94
2022/08/07 13:29:43;;;;;;;18.38;16.77;;;35.50;99.30;;;;;;4842549;29;20041;-93
2022/08/07 13:32:25;;;;;;;16.83;15.73;;;35.60;99.40;;;;;;4776551;29;20096;-93
2022/08/07 13:35:14;;;;;;;17.42;16.02;;;35.60;99.00;;;;;;4776430;29;20444;-92
2022/08/07 13:38:02;;;;;;;17.98;16.77;;;35.60;98.60;;;;;;4787405;29;20682;-94
2022/08/07 13:43:12;;;;;;;16.92;15.60;;;35.60;98.50;;;;;;4930216;23;20536;-92
2022/08/07 13:45:51;;;;;;;16.67;15.40;;;35.50;97.80;;;;;;4867200;29;20033;-93
2022/08/07 13:48:22;;;;;;;17.08;15.98;;;35.40;98.10;;;;;;4868255;29;20052;-93
2022/08/07 13:51:03;;;;;;;18.90;17.40;;;35.30;97.90;;;;;;4883723;29;20029;-94
2022/08/07 13:53:43;;;;;;;18.73;17.20;;;35.30;97.90;;;;;;4873899;29;20049;-94
2022/08/07 13:59:04;;;;;;;18.45;17.10;;;35.30;98.10;;;;;;4974707;23;20068;-93
2022/08/07 14:02:16;;;;;;;;;;;;;;;;;;;;;
2022/08/07 14:04:53;;;;;;;18.92;17.63;;;35.10;97.80;;;;;;4882611;29;20032;-92
2022/08/07 14:07:20;;;;;;;;;;;35.20;97.80;;;;;;4904777;29;20036;-94
2022/08/07 14:09:59;;;;;;;16.98;15.88;;;35.30;97.60;;;;;;4890719;29;19907;-93
2022/08/07 14:12:40;;;;;;;17.13;16.02;;;35.50;97.40;;;;;;4905624;29;20043;-93
2022/08/07 14:15:50;;;;;;;18.55;16.92;;;35.30;97.70;;;;;;4909168;29;20087;-93
2022/08/07 14:21:25;;;;;;;17.13;15.95;;;35.10;98.00;;;;;;5333519;23;20913;-93
2022/08/07 14:31:22;;;;;;;18.38;17.05;;;35.20;97.20;;;;;;4920325;23;20148;-93
2022/08/07 14:33:52;;;;;;;16.45;15.25;;;35.00;97.00;;;;;;4888023;29;20043;-92
2022/08/07 14:36:31;;;;;;;17.38;15.95;;;35.00;97.10;;;;;;4905748;29;20032;-93
2022/08/07 22:49:56;;;;;;;12.82;6.85;;;27.60;99.90;;;;;;4889115;29;20049;-94
